WSAP/QPG METAR and TAF weather

Enter ICAO airport designator
Station Type Date Time Source
WSAP METAR 2022/01/26 14:00 UTC NOAA

WSAP 261400Z 04010KT 9999 FEW018 BKN300 27/22 Q1010


Station Type Date Time Source
WSAP Decoded METAR 2022/01/26 14:00 UTC NOAA

Singapore / Paya Lebar, Singapore (WSAP) 01-22N 103-55E 32M
Jan 26, 2022 - 09:00 AM EST / 2022.01.26 1400 UTC
Wind: from the NE (040 degrees) at 12 MPH (10 KT):0
Visibility: greater than 7 mile(s):0
Sky conditions: mostly cloudy
Temperature: 80 F (27 C)
Dew Point: 71 F (22 C)
Relative Humidity: 74%
Pressure (altimeter): 29.83 in. Hg (1010 hPa)
ob: WSAP 261400Z 04010KT 9999 FEW018 BKN300 27/22 Q1010
cycle: 14

Station Type Date Time Source
WSAP TAF 2022/01/26 12:09 UTC NOAA

TAF WSAP 261100Z 2612/2718 02010KT 9999 FEW015 SCT020

Example: see airport list